Time;durP1;ratioP1;P1;durP2;ratioP2;P2;SDS_P1;SDS_P2;PMS_P1;PMS_P2;Temp;Humidity;BMP_temperature;BMP_pressure;BME280_temperature;BME280_humidity;BME280_pressure;Samples;Min_cycle;Max_cycle;Signal;HPM_P1;HPM_P2
2022/01/17 00:00:23;;;;;;;62.00;26.08;;;;;;;-0.09;71.07;100425.41;5050263;28;20025;-48
2022/01/17 00:02:49;;;;;;;54.47;24.85;;;;;;;-0.03;71.02;100419.69;5049937;28;20124;-50
2022/01/17 00:05:15;;;;;;;56.42;25.75;;;;;;;-0.36;71.21;100415.28;5050100;28;20373;-48
2022/01/17 00:07:40;;;;;;;64.72;28.15;;;;;;;-0.06;70.56;100412.09;5049730;28;20068;-49
2022/01/17 00:10:06;;;;;;;55.85;24.55;;;;;;;-0.12;70.35;100414.34;5049735;28;20401;-50
2022/01/17 00:12:35;;;;;;;60.85;26.95;;;;;;;-0.15;70.20;100411.94;5049626;28;20110;-51
2022/01/17 00:15:01;;;;;;;61.83;26.58;;;;;;;-0.16;70.48;100403.28;5049668;28;20105;-51
2022/01/17 00:17:37;;;;;;;56.45;26.95;;;;;;;-0.47;71.32;100400.38;5049786;28;20032;-50
2022/01/17 00:20:11;;;;;;;62.15;27.60;;;;;;;-0.28;70.33;100410.28;5050083;28;20143;-51
2022/01/17 00:22:38;;;;;;;63.88;27.83;;;;;;;-0.46;70.68;100407.31;5049820;28;20025;-49
2022/01/17 00:25:04;;;;;;;60.03;26.80;;;;;;;-0.41;71.30;100407.75;5049888;28;20370;-49
2022/01/17 00:27:31;;;;;;;59.05;26.77;;;;;;;-0.38;71.19;100418.94;5049511;28;20090;-48
2022/01/17 00:29:57;;;;;;;55.97;26.77;;;;;;;-0.26;71.40;100413.63;5049823;28;20044;-51
2022/01/17 00:32:22;;;;;;;54.08;24.52;;;;;;;-0.23;71.47;100415.16;5049421;28;20128;-49
2022/01/17 00:34:47;;;;;;;55.83;24.52;;;;;;;-0.17;70.17;100417.31;5049258;28;20025;-50
2022/01/17 00:37:13;;;;;;;56.75;24.70;;;;;;;-0.25;71.15;100414.44;5048773;28;20087;-48
2022/01/17 00:39:38;;;;;;;53.33;24.98;;;;;;;-0.34;71.76;100402.91;5049747;28;20029;-51
2022/01/17 00:42:04;;;;;;;48.53;23.42;;;;;;;-0.27;71.11;100400.66;5048325;28;20044;-51
2022/01/17 00:44:30;;;;;;;48.08;22.60;;;;;;;-0.37;71.46;100402.31;5049565;28;20029;-49
2022/01/17 00:46:55;;;;;;;55.30;24.27;;;;;;;-0.45;71.35;100401.09;5049305;28;20028;-52
2022/01/17 00:49:21;;;;;;;54.50;24.60;;;;;;;-0.35;71.45;100400.41;5049317;28;20055;-52
2022/01/17 00:51:47;;;;;;;53.42;24.58;;;;;;;-0.18;70.59;100399.94;5049213;28;20040;-51
2022/01/17 00:54:12;;;;;;;53.00;24.25;;;;;;;-0.19;70.49;100398.28;5049624;28;20128;-51
2022/01/17 00:56:38;;;;;;;54.63;24.63;;;;;;;-0.20;70.26;100391.38;5049188;28;20558;-48
2022/01/17 00:59:03;;;;;;;55.67;24.70;;;;;;;-0.33;71.33;100393.28;5049484;28;20036;-50
2022/01/17 01:01:28;;;;;;;57.00;26.33;;;;;;;-0.32;71.50;100392.34;5049623;28;20473;-49
2022/01/17 01:03:54;;;;;;;61.42;24.95;;;;;;;-0.35;70.91;100382.09;5049354;28;20512;-51
2022/01/17 01:06:19;;;;;;;50.95;23.58;;;;;;;-0.30;70.69;100382.59;5049190;28;20032;-51
2022/01/17 01:08:45;;;;;;;52.88;23.52;;;;;;;-0.43;70.51;100377.47;5048928;28;20041;-50
2022/01/17 01:11:10;;;;;;;57.63;24.83;;;;;;;-0.41;71.19;100373.75;5049231;28;20036;-52
2022/01/17 01:13:36;;;;;;;61.03;25.50;;;;;;;-0.70;71.41;100335.94;5049124;28;20346;-49
2022/01/17 01:28:52;;;;;;;49.55;23.63;;;;;;;-0.81;71.61;100334.13;5048885;28;20110;-50
2022/01/17 01:31:27;;;;;;;56.92;24.13;;;;;;;-0.67;71.50;100336.53;5048834;28;20056;-53
2022/01/17 01:33:55;;;;;;;54.72;24.60;;;;;;;-0.77;72.38;100329.50;5048864;28;20060;-50
2022/01/17 01:36:27;;;;;;;50.28;23.95;;;;;;;-0.93;72.97;100325.44;5048790;28;20037;-52
2022/01/17 01:38:53;;;;;;;50.67;23.75;;;;;;;-1.01;73.01;100319.94;5048812;28;20025;-49
2022/01/17 01:41:19;;;;;;;52.88;24.00;;;;;;;-0.85;72.84;100310.00;5048943;28;20063;-52
2022/01/17 01:43:45;;;;;;;50.00;24.30;;;;;;;-0.84;72.70;100313.44;5048956;28;20039;-49
2022/01/17 01:46:14;;;;;;;50.72;24.48;;;;;;;-0.73;71.95;100304.81;5048852;28;20392;-51
2022/01/17 01:48:40;;;;;;;55.60;23.10;;;;;;;-0.63;71.95;100305.75;5052215;28;20108;-49
2022/01/17 01:51:05;;;;;;;56.63;23.95;;;;;;;-0.50;71.00;100301.25;5052679;28;20067;-49
2022/01/17 01:53:31;;;;;;;55.83;24.27;;;;;;;-0.85;72.28;100310.00;5052332;28;20027;-50
2022/01/17 01:55:57;;;;;;;53.17;23.73;;;;;;;-0.84;72.46;100297.75;5052491;28;20028;-49
2022/01/17 01:58:23;;;;;;;49.25;22.17;;;;;;;-0.76;71.92;100294.56;5052420;28;20108;-48
2022/01/17 02:00:50;;;;;;;48.83;23.83;;;;;;;-0.79;71.50;100296.47;5052573;28;20043;-48
2022/01/17 02:03:15;;;;;;;46.75;22.80;;;;;;;-0.79;72.20;100303.50;5052330;28;20127;-50
2022/01/17 02:05:42;;;;;;;51.75;22.45;;;;;;;-1.00;72.56;100293.69;5052279;28;20639;-49
2022/01/17 02:08:11;;;;;;;48.13;22.80;;;;;;;-0.83;72.02;100289.00;5051752;28;20087;-49
2022/01/17 02:10:36;;;;;;;49.73;22.27;;;;;;;-0.81;71.32;100290.53;5052081;28;20025;-50
2022/01/17 02:13:02;;;;;;;49.85;21.85;;;;;;;-0.90;71.73;100280.78;5052043;28;20051;-50
2022/01/17 02:15:27;;;;;;;48.95;21.75;;;;;;;-1.11;72.72;100279.78;5051918;28;20372;-51
2022/01/17 02:17:55;;;;;;;48.33;21.75;;;;;;;-0.94;72.22;100271.50;5051920;28;20029;-48
2022/01/17 02:20:23;;;;;;;47.60;21.40;;;;;;;-0.82;71.29;100275.81;5051964;28;20033;-49
2022/01/17 02:22:49;;;;;;;43.88;19.80;;;;;;;-1.00;71.84;100271.97;5052139;28;20117;-50
2022/01/17 02:25:15;;;;;;;45.17;20.17;;;;;;;-0.84;71.83;100274.25;5052082;28;20049;-49
2022/01/17 02:27:40;;;;;;;41.05;19.75;;;;;;;-0.75;71.48;100268.31;5051664;28;20028;-51
2022/01/17 02:30:06;;;;;;;41.58;20.63;;;;;;;-0.80;71.88;100279.13;5051748;28;20024;-51
2022/01/17 02:32:33;;;;;;;42.00;19.73;;;;;;;-0.78;71.63;100258.13;5051532;28;20032;-49
2022/01/17 02:35:19;;;;;;;41.90;20.05;;;;;;;-1.03;71.45;100261.75;5051652;28;20083;-50
2022/01/17 02:37:44;;;;;;;38.75;18.30;;;;;;;-0.89;71.64;100268.56;5051352;28;20100;-47
2022/01/17 02:40:12;;;;;;;43.95;19.77;;;;;;;-0.95;71.81;100269.84;5051376;28;20651;-47
2022/01/17 02:42:38;;;;;;;41.85;18.75;;;;;;;-1.04;71.84;100275.78;5049828;28;20032;-49
2022/01/17 02:45:19;;;;;;;39.15;18.42;;;;;;;-1.14;71.71;100272.16;5051356;28;20025;-50
2022/01/17 02:47:44;;;;;;;38.88;19.23;;;;;;;-1.27;72.79;100273.09;5050984;28;20025;-51
2022/01/17 02:50:10;;;;;;;46.00;18.90;;;;;;;-1.10;72.68;100273.63;5051349;28;20040;-50
2022/01/17 02:52:35;;;;;;;41.75;17.92;;;;;;;-1.12;72.48;100272.88;5051223;28;20029;-50
2022/01/17 02:55:01;;;;;;;40.95;18.65;;;;;;;-1.01;72.92;100272.91;5051093;28;20473;-51
2022/01/17 02:57:28;;;;;;;37.05;17.33;;;;;;;-1.07;72.71;100274.19;5051276;28;20025;-48
2022/01/17 02:59:53;;;;;;;40.97;17.83;;;;;;;-1.02;72.60;100276.50;5050547;28;20036;-51
2022/01/17 03:02:19;;;;;;;41.33;18.08;;;;;;;-1.22;72.07;100265.75;5051147;28;20029;-50
2022/01/17 03:04:44;;;;;;;38.67;18.52;;;;;;;-1.03;72.37;100275.66;5051103;28;20048;-49
2022/01/17 03:07:09;;;;;;;40.42;19.10;;;;;;;-1.18;72.14;100274.22;5050873;28;20698;-51
2022/01/17 03:09:44;;;;;;;43.75;19.08;;;;;;;-1.30;71.93;100267.25;5051158;28;20052;-51
2022/01/17 03:12:10;;;;;;;44.45;19.42;;;;;;;-1.62;73.70;100268.72;5051158;28;20051;-50
2022/01/17 03:14:35;;;;;;;43.03;19.83;;;;;;;-1.75;73.98;100261.88;5050810;28;20493;-49
2022/01/17 03:17:01;;;;;;;41.85;19.23;;;;;;;-1.45;73.58;100258.78;5050709;28;20028;-48
2022/01/17 03:19:27;;;;;;;43.08;20.35;;;;;;;-1.78;73.55;100258.53;5050579;28;20103;-49
2022/01/17 03:21:52;;;;;;;46.33;20.27;;;;;;;-1.44;73.00;100250.03;5050932;28;20404;-49
2022/01/17 03:24:18;;;;;;;45.95;20.52;;;;;;;-1.59;74.01;100244.16;5051200;28;20032;-49
2022/01/17 03:26:43;;;;;;;41.33;20.00;;;;;;;-1.39;74.03;100247.88;5050697;28;20025;-51
2022/01/17 03:29:08;;;;;;;41.83;19.42;;;;;;;-1.77;74.28;100251.56;5050809;28;20024;-48
2022/01/17 03:31:34;;;;;;;44.17;20.02;;;;;;;-1.70;74.51;100249.31;5050842;28;20021;-49
2022/01/17 03:33:59;;;;;;;43.22;20.63;;;;;;;-1.42;73.70;100235.91;5050734;28;20024;-50
2022/01/17 03:36:25;;;;;;;47.03;21.13;;;;;;;-1.27;73.21;100231.31;5050684;28;20381;-51
2022/01/17 03:38:50;;;;;;;42.08;19.13;;;;;;;-1.39;72.84;100229.59;5050812;28;20048;-51
2022/01/17 03:41:16;;;;;;;40.92;18.33;;;;;;;-1.53;72.90;100229.81;5050926;28;20079;-51
2022/01/17 03:43:41;;;;;;;39.17;17.50;;;;;;;-1.56;74.33;100230.88;5050952;28;20385;-49
2022/01/17 03:46:07;;;;;;;36.67;16.95;;;;;;;-1.49;73.38;100223.41;5051018;28;20032;-49
2022/01/17 03:48:32;;;;;;;34.63;16.80;;;;;;;-1.33;72.61;100212.66;5050585;28;20453;-48
2022/01/17 03:50:59;;;;;;;38.60;16.13;;;;;;;-1.12;73.14;100211.03;5050739;28;20450;-48
2022/01/17 03:53:24;;;;;;;35.08;15.43;;;;;;;-1.31;72.53;100209.00;5050663;28;20028;-49
2022/01/17 03:55:51;;;;;;;40.17;16.90;;;;;;;-1.32;72.15;100207.31;5050692;28;20029;-48
2022/01/17 03:58:16;;;;;;;31.23;15.20;;;;;;;-1.38;72.55;100219.06;5050690;28;20032;-51
2022/01/17 04:00:43;;;;;;;34.10;15.82;;;;;;;-1.62;73.17;100207.81;5050734;28;20029;-47
2022/01/17 04:03:09;;;;;;;33.72;15.15;;;;;;;-1.54;73.09;100210.72;5050617;28;20480;-48
2022/01/17 04:05:34;;;;;;;35.28;16.15;;;;;;;-1.38;72.98;100213.00;5049042;28;20025;-49
2022/01/17 04:08:00;;;;;;;32.63;15.20;;;;;;;-1.25;71.65;100195.47;5048855;28;20510;-49
2022/01/17 04:10:25;;;;;;;31.00;15.55;;;;;;;-1.32;71.41;100207.31;5050290;28;20021;-50
2022/01/17 04:12:51;;;;;;;46.38;20.63;;;;;;;-1.41;72.66;100193.19;5050322;28;20033;-48
2022/01/17 04:15:16;;;;;;;143.02;51.20;;;;;;;-1.45;72.71;100190.91;5050255;28;20463;-52
2022/01/17 04:17:43;;;;;;;90.50;36.28;;;;;;;-1.59;72.91;100189.34;5050239;28;20087;-49
2022/01/17 04:20:12;;;;;;;42.35;19.50;;;;;;;-1.79;73.68;100201.22;5050199;28;20028;-50
2022/01/17 04:22:44;;;;;;;36.92;17.95;;;;;;;-1.77;74.18;100199.38;5050231;28;20039;-50
2022/01/17 04:25:09;;;;;;;44.13;17.52;;;;;;;-1.81;72.61;100216.19;5050207;28;20086;-51
2022/01/17 04:27:35;;;;;;;40.40;18.88;;;;;;;-1.88;72.28;100215.81;5050166;28;20021;-48
2022/01/17 04:30:01;;;;;;;33.20;16.00;;;;;;;-1.89;73.65;100221.13;5050092;28;20032;-50
2022/01/17 04:32:26;;;;;;;35.20;15.68;;;;;;;-2.01;74.86;100226.28;5049363;28;20116;-50
2022/01/17 04:34:52;;;;;;;34.92;16.33;;;;;;;-1.88;73.02;100225.41;5049665;28;20425;-51
2022/01/17 04:37:17;;;;;;;36.92;16.40;;;;;;;-1.89;73.79;100235.00;5049744;28;20032;-47
2022/01/17 04:39:42;;;;;;;33.75;16.40;;;;;;;-1.85;73.12;100210.34;5050169;28;20048;-49
2022/01/17 04:42:12;;;;;;;32.13;15.23;;;;;;;-1.76;73.28;100216.69;5050054;28;20032;-51
2022/01/17 04:47:23;;;;;;;36.30;15.48;;;;;;;-2.05;74.17;100209.19;5048379;28;20518;-49
2022/01/17 04:49:48;;;;;;;32.92;15.65;;;;;;;-2.13;74.39;100213.28;5048149;28;20037;-51
2022/01/17 04:52:14;;;;;;;35.40;16.23;;;;;;;-2.01;73.63;100222.84;5046969;28;20025;-50
2022/01/17 04:54:45;;;;;;;40.15;17.65;;;;;;;-2.10;73.96;100226.13;5047798;28;20021;-49
2022/01/17 04:57:11;;;;;;;35.35;17.25;;;;;;;-2.20;74.95;100216.34;5047637;28;20067;-52
2022/01/17 04:59:37;;;;;;;33.30;16.27;;;;;;;-2.28;75.29;100213.47;5048613;28;20028;-50
2022/01/17 05:02:03;;;;;;;38.92;16.77;;;;;;;-2.01;76.71;100225.47;5049326;28;20589;-51
2022/01/17 05:04:28;;;;;;;34.15;16.38;;;;;;;-2.08;77.62;100219.84;5049265;28;20110;-49
2022/01/17 05:06:53;;;;;;;36.72;16.60;;;;;;;-1.98;76.25;100225.22;5048425;28;20029;-50
2022/01/17 05:09:19;;;;;;;37.65;17.55;;;;;;;-1.74;75.47;100217.41;5048252;28;20057;-52
2022/01/17 05:11:47;;;;;;;32.13;16.13;;;;;;;-1.65;74.23;100208.91;5048812;28;20028;-51
2022/01/17 05:14:13;;;;;;;33.67;15.75;;;;;;;-1.61;74.15;100204.28;5030570;28;20033;-51
2022/01/17 05:16:46;;;;;;;37.40;17.42;;;;;;;-1.74;74.12;100212.19;5048387;28;20028;-49
2022/01/17 05:21:55;;;;;;;35.50;16.67;;;;;;;-1.84;74.50;100212.03;5049634;28;20056;-51
2022/01/17 05:24:21;;;;;;;36.55;16.75;;;;;;;-1.77;73.66;100204.59;5052406;28;20017;-52
2022/01/17 05:26:46;;;;;;;37.40;16.70;;;;;;;-1.69;79.42;100206.63;5044242;28;20036;-53
2022/01/17 05:29:12;;;;;;;36.20;17.55;;;;;;;-1.42;77.44;100203.75;5043674;28;20025;-50
2022/01/17 05:31:37;;;;;;;34.60;18.42;;;;;;;-1.74;73.21;100200.91;5051219;28;20070;-47
2022/01/17 05:34:02;;;;;;;38.97;18.77;;;;;;;-1.77;74.19;100200.19;5050375;28;20032;-48
2022/01/17 05:36:28;;;;;;;39.92;18.73;;;;;;;-1.83;76.97;100197.19;5051997;28;20472;-51
2022/01/17 05:38:53;;;;;;;40.20;20.35;;;;;;;-1.71;75.62;100198.06;5052346;28;20021;-51
2022/01/17 05:41:19;;;;;;;41.28;18.88;;;;;;;-1.77;74.41;100188.94;5052946;28;20032;-51
2022/01/17 05:43:45;;;;;;;39.17;18.70;;;;;;;-1.78;76.17;100189.88;5052724;28;20028;-51
2022/01/17 05:46:10;;;;;;;41.38;19.45;;;;;;;-1.62;76.23;100192.16;5052166;28;20021;-50
2022/01/17 05:48:36;;;;;;;49.72;19.15;;;;;;;-1.84;75.43;100185.09;5053004;28;20546;-50
2022/01/17 05:51:01;;;;;;;40.30;19.38;;;;;;;-1.93;75.76;100175.34;5050627;28;20492;-51
2022/01/17 05:53:27;;;;;;;45.55;19.83;;;;;;;-1.72;76.88;100171.13;5050253;28;20024;-51
2022/01/17 05:55:52;;;;;;;40.40;18.17;;;;;;;-1.43;74.07;100192.47;5050448;28;20025;-50
2022/01/17 05:58:18;;;;;;;35.50;17.95;;;;;;;-1.40;73.72;100178.34;5051022;28;20021;-50
2022/01/17 06:00:43;;;;;;;72.45;30.20;;;;;;;-1.63;74.56;100157.41;5050641;28;20500;-50
2022/01/17 06:03:09;;;;;;;67.97;28.50;;;;;;;-1.59;75.74;100192.78;5050945;28;20181;-51
2022/01/17 06:05:34;;;;;;;35.17;16.45;;;;;;;-1.55;74.06;100190.78;5051285;28;20020;-50
2022/01/17 06:08:00;;;;;;;41.88;19.88;;;;;;;-1.41;73.72;100197.56;5051262;28;20106;-50
2022/01/17 06:10:25;;;;;;;37.70;18.20;;;;;;;-1.11;72.33;100188.34;5051302;28;20348;-48
2022/01/17 06:12:50;;;;;;;36.83;18.20;;;;;;;-1.05;71.93;100180.03;5051200;28;20033;-49
2022/01/17 06:15:18;;;;;;;43.35;19.17;;;;;;;-0.95;72.04;100183.63;5051387;28;20047;-48
2022/01/17 06:17:44;;;;;;;35.50;19.20;;;;;;;-0.49;69.70;100173.97;5051592;28;20081;-50
2022/01/17 06:20:10;;;;;;;55.78;26.70;;;;;;;-0.33;72.22;100186.66;5051432;28;20024;-48
2022/01/17 06:22:35;;;;;;;61.10;27.48;;;;;;;-0.56;71.07;100184.06;5051058;28;20100;-49
2022/01/17 06:25:01;;;;;;;42.15;19.17;;;;;;;-0.39;71.95;100187.97;5051648;28;20070;-48
2022/01/17 06:27:27;;;;;;;42.03;19.45;;;;;;;-0.16;70.66;100187.91;5051326;28;20476;-49
2022/01/17 06:29:52;;;;;;;39.00;17.75;;;;;;;0.25;70.24;100179.31;5051157;28;20025;-50
2022/01/17 06:32:18;;;;;;;41.97;19.60;;;;;;;0.54;67.84;100168.22;5051082;28;20032;-50
2022/01/17 06:34:43;;;;;;;59.33;28.38;;;;;;;0.92;66.08;100166.78;5049589;28;20021;-52
2022/01/17 06:37:08;;;;;;;82.15;37.40;;;;;;;0.96;65.84;100162.91;5050952;28;20032;-52
2022/01/17 06:39:34;;;;;;;39.28;20.52;;;;;;;0.71;65.06;100159.75;5051196;28;20029;-53
2022/01/17 06:41:59;;;;;;;41.30;21.70;;;;;;;0.85;65.20;100155.16;5049872;28;20131;-49
2022/01/17 06:44:25;;;;;;;40.60;20.58;;;;;;;0.92;66.58;100144.00;5050795;28;20021;-50
2022/01/17 06:46:50;;;;;;;52.08;26.35;;;;;;;1.17;63.57;100155.00;5050400;28;20476;-52
2022/01/17 06:49:16;;;;;;;54.22;24.45;;;;;;;1.10;64.38;100162.56;5050919;28;20393;-51
2022/01/17 06:51:41;;;;;;;47.08;22.42;;;;;;;1.05;63.62;100156.03;5050364;28;20036;-52
2022/01/17 06:54:07;;;;;;;44.83;23.33;;;;;;;1.35;64.69;100157.81;5050989;28;20029;-52
2022/01/17 06:56:32;;;;;;;44.97;22.15;;;;;;;1.60;63.30;100158.28;5050339;28;20421;-51
2022/01/17 06:58:58;;;;;;;53.00;24.33;;;;;;;1.97;61.34;100162.91;5050456;28;20021;-53
2022/01/17 07:01:23;;;;;;;49.10;23.98;;;;;;;1.80;61.06;100170.47;5050615;28;20029;-50
2022/01/17 07:03:49;;;;;;;46.95;23.20;;;;;;;1.85;61.40;100173.53;5050500;28;20083;-49
2022/01/17 07:06:15;;;;;;;47.92;24.35;;;;;;;2.12;60.71;100158.91;5050537;28;20051;-52
2022/01/17 07:08:40;;;;;;;46.67;24.02;;;;;;;1.88;60.77;100164.53;5049885;28;20045;-52
2022/01/17 07:11:06;;;;;;;44.10;22.38;;;;;;;2.21;61.75;100162.47;5050413;28;20021;-51
2022/01/17 07:13:32;;;;;;;40.70;21.70;;;;;;;2.38;60.16;100168.81;5050306;28;20023;-51
2022/01/17 07:15:57;;;;;;;43.83;21.70;;;;;;;2.24;59.62;100149.06;5050440;28;20025;-51
2022/01/17 07:18:23;;;;;;;43.40;22.15;;;;;;;2.21;60.38;100144.09;5050341;28;20385;-50
2022/01/17 07:20:48;;;;;;;48.10;24.63;;;;;;;2.07;61.56;100147.97;5050221;28;20090;-52
2022/01/17 07:23:14;;;;;;;53.22;28.05;;;;;;;2.58;59.70;100131.03;5050569;28;20024;-51
2022/01/17 07:25:40;;;;;;;55.67;29.55;;;;;;;2.96;59.01;100128.44;5050513;28;20403;-50
2022/01/17 07:28:07;;;;;;;52.42;26.60;;;;;;;3.35;59.59;100130.88;5050399;28;20083;-49
2022/01/17 07:30:33;;;;;;;48.45;27.60;;;;;;;3.58;57.14;100139.16;5050031;28;20025;-52
2022/01/17 07:32:58;;;;;;;50.05;28.20;;;;;;;3.90;56.04;100123.72;5049108;28;20025;-51
2022/01/17 07:35:24;;;;;;;45.50;25.15;;;;;;;3.98;55.56;100119.47;5049773;28;20017;-51
2022/01/17 07:37:49;;;;;;;45.65;22.90;;;;;;;4.35;54.86;100107.94;5048830;28;20025;-52
2022/01/17 07:40:15;;;;;;;36.42;18.23;;;;;;;4.47;54.25;100106.69;5049999;28;20017;-50
2022/01/17 07:42:40;;;;;;;30.45;16.23;;;;;;;4.59;53.14;100094.06;5049941;28;20024;-52
2022/01/17 07:45:12;;;;;;;30.65;16.13;;;;;;;4.55;52.49;100098.00;5049118;28;20186;-50
2022/01/17 07:47:41;;;;;;;27.27;15.00;;;;;;;4.90;50.76;100094.41;5049389;28;20118;-50
2022/01/17 07:50:07;;;;;;;26.60;14.63;;;;;;;4.97;50.10;100090.16;5049751;28;20025;-52
2022/01/17 07:52:33;;;;;;;33.75;16.50;;;;;;;5.12;50.04;100097.44;5049648;28;20124;-48
2022/01/17 07:54:59;;;;;;;29.80;16.25;;;;;;;5.33;49.12;100103.16;5049451;28;20025;-48
2022/01/17 07:57:24;;;;;;;33.38;17.88;;;;;;;5.21;49.08;100104.41;5049339;28;20123;-48
2022/01/17 07:59:50;;;;;;;35.53;18.80;;;;;;;5.35;49.48;100134.63;5048626;28;20028;-48
2022/01/17 08:02:15;;;;;;;36.72;18.13;;;;;;;5.73;48.45;100140.34;5049544;28;20504;-48
2022/01/17 08:04:41;;;;;;;36.42;18.80;;;;;;;5.76;47.75;100132.13;5049250;28;20082;-52
2022/01/17 08:07:07;;;;;;;35.50;18.30;;;;;;;5.81;48.43;100140.38;5049061;28;20079;-49
2022/01/17 08:09:33;;;;;;;36.80;18.58;;;;;;;5.90;47.76;100157.06;5049343;28;20374;-48
2022/01/17 08:11:58;;;;;;;36.00;18.15;;;;;;;6.04;47.02;100145.88;5049788;28;20531;-50
2022/01/17 08:14:24;;;;;;;36.45;18.38;;;;;;;6.02;47.10;100153.97;5049003;28;20432;-51
2022/01/17 08:16:51;;;;;;;32.53;17.15;;;;;;;5.86;47.42;100153.91;5049348;28;20031;-49
2022/01/17 08:19:16;;;;;;;34.03;17.85;;;;;;;5.88;47.61;100173.06;5049342;28;20120;-52
2022/01/17 08:21:42;;;;;;;38.20;18.05;;;;;;;6.26;47.88;100181.38;5049316;28;20457;-50
2022/01/17 08:24:07;;;;;;;42.45;18.45;;;;;;;6.49;47.08;100231.78;5049268;28;20499;-50
2022/01/17 08:26:33;;;;;;;30.15;16.77;;;;;;;6.86;45.44;100225.19;5049423;28;20225;-50
2022/01/17 08:28:58;;;;;;;35.72;15.43;;;;;;;6.91;44.96;100233.44;5048993;28;20025;-48
2022/01/17 08:31:24;;;;;;;35.45;15.27;;;;;;;7.32;44.26;100253.72;5049140;28;20473;-49
2022/01/17 08:33:49;;;;;;;24.67;10.90;;;;;;;7.55;43.78;100201.63;5048970;28;20036;-49
2022/01/17 08:36:19;;;;;;;21.13;8.95;;;;;;;7.86;42.55;100168.19;5048727;28;20025;-49
2022/01/17 08:38:47;;;;;;;15.02;7.15;;;;;;;8.32;41.95;100173.50;5047781;28;20079;-51
2022/01/17 08:41:12;;;;;;;12.85;5.72;;;;;;;9.18;39.49;100150.97;5049109;28;20032;-51
2022/01/17 08:43:38;;;;;;;10.35;5.93;;;;;;;9.58;39.03;100158.59;5048846;28;20042;-51
2022/01/17 08:46:06;;;;;;;19.08;5.30;;;;;;;8.86;39.10;100151.34;5048638;28;20086;-51
2022/01/17 08:48:31;;;;;;;12.88;6.07;;;;;;;8.76;39.25;100101.19;5048780;28;20049;-50
2022/01/17 08:50:57;;;;;;;9.85;4.97;;;;;;;8.89;39.09;100093.41;5047108;28;20021;-49
2022/01/17 08:53:22;;;;;;;8.30;4.38;;;;;;;8.98;39.14;100104.72;5048699;28;20504;-52
2022/01/17 08:55:47;;;;;;;12.75;5.03;;;;;;;9.19;37.66;100099.50;5048744;28;20035;-50
2022/01/17 08:58:13;;;;;;;8.43;4.60;;;;;;;9.49;37.36;100075.53;5051911;28;20025;-52
2022/01/17 09:00:39;;;;;;;10.05;5.00;;;;;;;9.83;37.24;100070.53;5053358;28;20103;-53
2022/01/17 09:03:05;;;;;;;16.50;5.93;;;;;;;9.77;37.49;100077.44;5053332;28;20036;-50
2022/01/17 09:05:31;;;;;;;8.68;4.78;;;;;;;9.78;37.16;100055.97;5052720;28;20032;-50
2022/01/17 09:07:57;;;;;;;15.10;4.85;;;;;;;9.91;37.01;100073.88;5052436;28;20112;-48
2022/01/17 09:10:22;;;;;;;14.18;5.18;;;;;;;10.12;35.95;100075.69;5052656;28;20079;-49
2022/01/17 09:12:47;;;;;;;9.25;5.00;;;;;;;10.32;35.73;100046.63;5052723;28;20047;-49
2022/01/17 09:15:13;;;;;;;11.13;4.63;;;;;;;10.76;35.22;100021.50;5052351;28;20048;-51
2022/01/17 09:17:39;;;;;;;11.32;4.63;;;;;;;10.76;35.00;100032.13;5052645;28;20024;-48
2022/01/17 09:20:05;;;;;;;12.68;5.13;;;;;;;10.74;34.72;100020.88;5052943;28;20094;-39
2022/01/17 09:22:32;;;;;;;9.05;4.90;;;;;;;10.74;34.81;100015.53;5052772;28;20032;-39
2022/01/17 09:24:57;;;;;;;11.00;4.70;;;;;;;10.70;34.55;100056.91;5052627;28;20086;-38
2022/01/17 09:27:23;;;;;;;12.98;4.88;;;;;;;10.59;34.19;100056.63;5052568;28;20107;-38
2022/01/17 09:29:48;;;;;;;7.78;4.78;;;;;;;10.58;34.69;100055.78;5052372;28;20028;-38
2022/01/17 09:32:14;;;;;;;7.85;4.90;;;;;;;10.40;35.00;100036.84;5052497;28;20022;-38
2022/01/17 09:34:42;;;;;;;10.38;4.70;;;;;;;10.05;35.25;100032.28;5052589;28;20337;-38
2022/01/17 09:37:10;;;;;;;10.68;4.85;;;;;;;10.08;35.63;100047.84;5051043;28;20033;-38
2022/01/17 09:39:37;;;;;;;8.98;4.55;;;;;;;10.28;35.16;100033.88;5052491;28;20025;-38
2022/01/17 09:42:05;;;;;;;9.50;4.95;;;;;;;10.47;34.85;100035.88;5052613;28;20033;-38
2022/01/17 09:44:30;;;;;;;10.77;4.93;;;;;;;10.35;34.91;100018.81;5051152;28;20045;-38
2022/01/17 09:46:57;;;;;;;11.20;5.18;;;;;;;10.42;34.71;100014.34;5051988;28;20040;-38
2022/01/17 09:49:34;;;;;;;8.90;4.65;;;;;;;10.13;35.17;100029.47;5052427;28;20033;-38
2022/01/17 09:52:13;;;;;;;11.40;4.97;;;;;;;10.48;35.19;100010.91;5052296;28;20511;-38
2022/01/17 09:54:39;;;;;;;9.75;4.30;;;;;;;10.73;35.26;100005.91;5052076;28;20032;-38
2022/01/17 09:57:09;;;;;;;11.70;4.70;;;;;;;10.81;35.18;99991.59;5034106;28;20031;-38
2022/01/17 09:59:35;;;;;;;9.82;4.70;;;;;;;10.92;35.26;100000.88;5051998;28;20567;-38
2022/01/17 10:02:01;;;;;;;11.63;4.85;;;;;;;10.88;35.42;100002.28;5052034;28;20040;-38
2022/01/17 10:04:26;;;;;;;8.90;4.72;;;;;;;10.90;34.96;99981.63;5050813;28;20036;-38
2022/01/17 10:06:59;;;;;;;11.30;4.00;;;;;;;10.67;35.54;99995.25;5051616;28;20033;-38
2022/01/17 10:09:25;;;;;;;9.10;3.97;;;;;;;10.84;35.23;99985.06;5031451;28;20041;-37
2022/01/17 10:12:06;;;;;;;11.02;4.47;;;;;;;10.92;35.56;99982.22;5031658;28;20029;-38
2022/01/17 10:14:36;;;;;;;12.25;4.93;;;;;;;10.84;36.04;99971.75;5031721;28;20090;-38
2022/01/17 10:17:15;;;;;;;8.35;3.90;;;;;;;10.94;35.70;99956.22;5031863;28;20049;-38
2022/01/17 10:19:41;;;;;;;7.13;3.83;;;;;;;10.65;35.59;99954.69;5032023;28;20105;-38
2022/01/17 10:22:19;;;;;;;7.53;4.35;;;;;;;10.82;34.94;99933.88;5031659;28;20112;-38
2022/01/17 10:24:58;;;;;;;7.30;4.18;;;;;;;10.75;35.34;99920.53;5031893;28;20064;-38
2022/01/17 10:30:16;;;;;;;9.52;4.22;;;;;;;11.26;34.34;99905.88;5031715;28;20045;-38
2022/01/17 10:35:26;;;;;;;10.43;3.60;;;;;;;11.00;34.19;99904.00;5031029;28;20071;-39
2022/01/17 10:38:12;;;;;;;7.53;3.65;;;;;;;10.66;34.68;99905.75;5030590;28;20077;-37
2022/01/17 10:40:56;;;;;;;7.45;4.05;;;;;;;10.53;34.35;99902.03;5031548;28;20465;-37
2022/01/17 10:43:34;;;;;;;7.43;3.60;;;;;;;10.64;33.80;99911.31;5031276;28;20029;-37
2022/01/17 10:46:00;;;;;;;8.68;3.63;;;;;;;10.76;33.63;99906.22;5031266;28;20033;-38
2022/01/17 10:48:37;;;;;;;10.25;3.75;;;;;;;10.79;33.34;99910.31;5031162;28;20017;-37
2022/01/17 10:51:04;;;;;;;8.15;4.35;;;;;;;10.78;33.24;99912.16;5031457;28;20396;-38
2022/01/17 10:53:29;;;;;;;7.28;3.97;;;;;;;10.84;33.78;99900.69;5031302;28;20120;-38
2022/01/17 10:55:57;;;;;;;7.85;3.80;;;;;;;10.80;33.09;99906.63;5031204;28;20029;-38
2022/01/17 10:58:29;;;;;;;7.45;3.90;;;;;;;10.78;34.04;99914.00;5031273;28;20033;-38
2022/01/17 11:00:57;;;;;;;8.85;3.80;;;;;;;10.90;33.65;99917.72;5031243;28;20116;-38
2022/01/17 11:03:26;;;;;;;7.07;3.85;;;;;;;11.16;33.37;99927.59;5031045;28;20033;-38
2022/01/17 11:05:52;;;;;;;6.88;3.90;;;;;;;11.06;33.83;99941.31;5031225;28;20068;-38
2022/01/17 11:08:22;;;;;;;7.97;3.78;;;;;;;11.37;33.93;99945.25;5041681;28;20109;-39
2022/01/17 11:10:50;;;;;;;9.25;3.78;;;;;;;11.14;36.23;99945.63;5050548;28;20025;-38
2022/01/17 11:13:17;;;;;;;7.97;4.40;;;;;;;11.38;36.61;99936.22;5049899;28;20357;-38
2022/01/17 11:15:45;;;;;;;8.35;4.53;;;;;;;11.49;36.24;99932.13;5050310;28;20522;-39
2022/01/17 11:18:18;;;;;;;5.95;3.53;;;;;;;11.25;36.89;99920.22;5050621;28;20029;-38
2022/01/17 11:20:43;;;;;;;11.55;3.30;;;;;;;11.12;36.62;99918.38;5048901;28;20068;-38
2022/01/17 11:23:09;;;;;;;7.10;3.20;;;;;;;11.20;36.04;99912.84;5050938;28;20072;-39
2022/01/17 11:25:36;;;;;;;7.80;3.85;;;;;;;11.53;35.17;99920.03;5050702;28;20060;-39
2022/01/17 11:28:04;;;;;;;8.25;3.60;;;;;;;11.44;35.89;99934.59;5050609;28;20017;-38
2022/01/17 11:30:30;;;;;;;6.95;2.97;;;;;;;11.18;33.58;99927.41;5050396;28;20052;-39
2022/01/17 11:32:56;;;;;;;13.88;3.38;;;;;;;11.11;32.82;99917.53;5050371;28;20469;-38
2022/01/17 11:35:22;;;;;;;4.25;2.78;;;;;;;11.37;33.01;99928.44;5048160;28;20522;-38